sensor_id;sensor_type;location;lat;lon;timestamp;pressure;altitude;pressure_sealevel;temperature
67829;BMP280;54626;45.436;10.942;2023-04-01T00:01:13;99423.50;;;9.60
67829;BMP280;54626;45.436;10.942;2023-04-01T00:03:43;99421.28;;;9.59
67829;BMP280;54626;45.436;10.942;2023-04-01T00:06:14;99429.94;;;9.55
67829;BMP280;54626;45.436;10.942;2023-04-01T00:08:41;99428.66;;;9.41
67829;BMP280;54626;45.436;10.942;2023-04-01T00:11:07;99431.22;;;9.54
67829;BMP280;54626;45.436;10.942;2023-04-01T00:13:34;99439.50;;;9.62
67829;BMP280;54626;45.436;10.942;2023-04-01T00:16:00;99437.47;;;9.62
67829;BMP280;54626;45.436;10.942;2023-04-01T00:18:28;99438.56;;;9.59
67829;BMP280;54626;45.436;10.942;2023-04-01T00:20:55;99439.28;;;9.75
67829;BMP280;54626;45.436;10.942;2023-04-01T00:23:21;99435.94;;;9.84
67829;BMP280;54626;45.436;10.942;2023-04-01T00:25:48;99439.63;;;9.86
67829;BMP280;54626;45.436;10.942;2023-04-01T00:28:17;99440.16;;;9.92
67829;BMP280;54626;45.436;10.942;2023-04-01T00:30:44;99436.84;;;9.93
67829;BMP280;54626;45.436;10.942;2023-04-01T00:33:15;99443.13;;;9.87
67829;BMP280;54626;45.436;10.942;2023-04-01T00:35:43;99445.38;;;9.66
67829;BMP280;54626;45.436;10.942;2023-04-01T00:38:10;99446.88;;;9.52
67829;BMP280;54626;45.436;10.942;2023-04-01T00:40:43;99441.53;;;9.39
67829;BMP280;54626;45.436;10.942;2023-04-01T00:43:13;99441.38;;;9.29
67829;BMP280;54626;45.436;10.942;2023-04-01T00:45:42;99443.00;;;9.32
67829;BMP280;54626;45.436;10.942;2023-04-01T00:48:21;99437.91;;;9.29
67829;BMP280;54626;45.436;10.942;2023-04-01T00:50:51;99450.19;;;9.13
67829;BMP280;54626;45.436;10.942;2023-04-01T00:53:23;99454.22;;;9.12
67829;BMP280;54626;45.436;10.942;2023-04-01T00:56:14;99461.59;;;9.17
67829;BMP280;54626;45.436;10.942;2023-04-01T00:58:46;99456.28;;;9.19
67829;BMP280;54626;45.436;10.942;2023-04-01T01:01:14;99455.13;;;9.14
67829;BMP280;54626;45.436;10.942;2023-04-01T01:03:40;99451.31;;;9.10
67829;BMP280;54626;45.436;10.942;2023-04-01T01:06:11;99448.34;;;9.01
67829;BMP280;54626;45.436;10.942;2023-04-01T01:11:36;99451.09;;;9.01
67829;BMP280;54626;45.436;10.942;2023-04-01T01:14:24;99436.00;;;8.94
67829;BMP280;54626;45.436;10.942;2023-04-01T01:16:59;99445.41;;;8.99
67829;BMP280;54626;45.436;10.942;2023-04-01T01:31:21;99448.91;;;8.84
67829;BMP280;54626;45.436;10.942;2023-04-01T01:36:56;99449.06;;;9.23
67829;BMP280;54626;45.436;10.942;2023-04-01T01:39:28;99438.44;;;9.27
67829;BMP280;54626;45.436;10.942;2023-04-01T01:41:57;99427.03;;;9.16
67829;BMP280;54626;45.436;10.942;2023-04-01T01:44:29;99429.06;;;9.08
67829;BMP280;54626;45.436;10.942;2023-04-01T01:46:57;99441.53;;;9.02
67829;BMP280;54626;45.436;10.942;2023-04-01T01:49:27;99437.31;;;9.01
67829;BMP280;54626;45.436;10.942;2023-04-01T01:51:53;99442.63;;;8.99
67829;BMP280;54626;45.436;10.942;2023-04-01T01:54:23;99436.00;;;8.94
67829;BMP280;54626;45.436;10.942;2023-04-01T01:57:03;99431.06;;;8.93
67829;BMP280;54626;45.436;10.942;2023-04-01T01:59:33;99413.81;;;8.92
67829;BMP280;54626;45.436;10.942;2023-04-01T02:02:05;99429.75;;;8.94
67829;BMP280;54626;45.436;10.942;2023-04-01T02:04:36;99442.25;;;8.95
67829;BMP280;54626;45.436;10.942;2023-04-01T02:07:10;99437.47;;;8.88
67829;BMP280;54626;45.436;10.942;2023-04-01T02:09:39;99425.53;;;8.70
67829;BMP280;54626;45.436;10.942;2023-04-01T02:12:11;99434.13;;;8.59
67829;BMP280;54626;45.436;10.942;2023-04-01T02:14:56;99433.56;;;8.61
67829;BMP280;54626;45.436;10.942;2023-04-01T02:17:27;99439.81;;;8.61
67829;BMP280;54626;45.436;10.942;2023-04-01T02:20:00;99438.25;;;8.38
67829;BMP280;54626;45.436;10.942;2023-04-01T02:22:36;99435.69;;;8.32
67829;BMP280;54626;45.436;10.942;2023-04-01T02:25:07;99426.84;;;8.26
67829;BMP280;54626;45.436;10.942;2023-04-01T02:27:36;99433.50;;;8.46
67829;BMP280;54626;45.436;10.942;2023-04-01T02:30:04;99448.63;;;8.60
67829;BMP280;54626;45.436;10.942;2023-04-01T02:32:32;99444.41;;;8.66
67829;BMP280;54626;45.436;10.942;2023-04-01T02:34:59;99430.25;;;8.55
67829;BMP280;54626;45.436;10.942;2023-04-01T02:37:32;99420.09;;;8.35
67829;BMP280;54626;45.436;10.942;2023-04-01T02:40:03;99419.75;;;8.38
67829;BMP280;54626;45.436;10.942;2023-04-01T02:42:33;99412.06;;;8.52
67829;BMP280;54626;45.436;10.942;2023-04-01T02:45:00;99432.81;;;8.53
67829;BMP280;54626;45.436;10.942;2023-04-01T02:47:31;99433.34;;;8.44
67829;BMP280;54626;45.436;10.942;2023-04-01T02:49:58;99443.25;;;8.47
67829;BMP280;54626;45.436;10.942;2023-04-01T02:52:28;99450.03;;;8.46
67829;BMP280;54626;45.436;10.942;2023-04-01T02:54:58;99445.28;;;8.46
67829;BMP280;54626;45.436;10.942;2023-04-01T02:57:25;99451.50;;;8.47
67829;BMP280;54626;45.436;10.942;2023-04-01T02:59:53;99440.31;;;8.45
67829;BMP280;54626;45.436;10.942;2023-04-01T03:02:19;99442.53;;;8.46
67829;BMP280;54626;45.436;10.942;2023-04-01T03:04:45;99441.59;;;8.44
67829;BMP280;54626;45.436;10.942;2023-04-01T03:07:12;99450.63;;;8.44
67829;BMP280;54626;45.436;10.942;2023-04-01T03:09:39;99450.94;;;8.41
67829;BMP280;54626;45.436;10.942;2023-04-01T03:12:06;99453.63;;;8.26
67829;BMP280;54626;45.436;10.942;2023-04-01T03:14:33;99445.00;;;8.15
67829;BMP280;54626;45.436;10.942;2023-04-01T03:17:02;99432.41;;;7.99
67829;BMP280;54626;45.436;10.942;2023-04-01T03:19:32;99445.06;;;7.94
67829;BMP280;54626;45.436;10.942;2023-04-01T03:22:00;99447.00;;;7.86
67829;BMP280;54626;45.436;10.942;2023-04-01T03:24:26;99460.59;;;7.84
67829;BMP280;54626;45.436;10.942;2023-04-01T03:26:52;99471.22;;;7.60
67829;BMP280;54626;45.436;10.942;2023-04-01T03:29:19;99456.94;;;7.61
67829;BMP280;54626;45.436;10.942;2023-04-01T03:31:45;99456.19;;;7.61
67829;BMP280;54626;45.436;10.942;2023-04-01T03:34:12;99439.53;;;7.66
67829;BMP280;54626;45.436;10.942;2023-04-01T03:36:39;99444.72;;;7.70
67829;BMP280;54626;45.436;10.942;2023-04-01T03:39:06;99456.66;;;7.72
67829;BMP280;54626;45.436;10.942;2023-04-01T03:41:35;99454.28;;;7.76
67829;BMP280;54626;45.436;10.942;2023-04-01T03:44:03;99459.97;;;7.78
67829;BMP280;54626;45.436;10.942;2023-04-01T03:46:29;99459.97;;;7.78
67829;BMP280;54626;45.436;10.942;2023-04-01T03:48:56;99466.25;;;7.79
67829;BMP280;54626;45.436;10.942;2023-04-01T03:51:22;99467.91;;;7.82
67829;BMP280;54626;45.436;10.942;2023-04-01T03:53:50;99473.22;;;7.80
67829;BMP280;54626;45.436;10.942;2023-04-01T03:56:16;99460.75;;;7.86
67829;BMP280;54626;45.436;10.942;2023-04-01T03:58:43;99467.03;;;7.87
67829;BMP280;54626;45.436;10.942;2023-04-01T04:01:15;99476.53;;;7.86
67829;BMP280;54626;45.436;10.942;2023-04-01T04:03:42;99482.44;;;7.62
67829;BMP280;54626;45.436;10.942;2023-04-01T04:06:12;99484.53;;;7.48
67829;BMP280;54626;45.436;10.942;2023-04-01T04:08:39;99491.38;;;7.34
67829;BMP280;54626;45.436;10.942;2023-04-01T04:11:06;99491.50;;;7.29
67829;BMP280;54626;45.436;10.942;2023-04-01T04:13:32;99483.59;;;7.26
67829;BMP280;54626;45.436;10.942;2023-04-01T04:16:01;99485.44;;;7.31
67829;BMP280;54626;45.436;10.942;2023-04-01T04:18:28;99481.44;;;7.32
67829;BMP280;54626;45.436;10.942;2023-04-01T04:21:00;99483.84;;;7.35
67829;BMP280;54626;45.436;10.942;2023-04-01T04:23:26;99484.91;;;7.32
67829;BMP280;54626;45.436;10.942;2023-04-01T04:26:03;99490.59;;;7.34
67829;BMP280;54626;45.436;10.942;2023-04-01T04:28:31;99488.63;;;7.34
67829;BMP280;54626;45.436;10.942;2023-04-01T04:30:58;99489.28;;;7.28
67829;BMP280;54626;45.436;10.942;2023-04-01T04:33:25;99496.06;;;7.27
67829;BMP280;54626;45.436;10.942;2023-04-01T04:35:55;99492.69;;;7.21
67829;BMP280;54626;45.436;10.942;2023-04-01T04:38:21;99484.66;;;7.23
67829;BMP280;54626;45.436;10.942;2023-04-01T04:40:48;99495.00;;;7.30
67829;BMP280;54626;45.436;10.942;2023-04-01T04:43:15;99492.94;;;7.30
67829;BMP280;54626;45.436;10.942;2023-04-01T04:45:41;99489.94;;;7.21
67829;BMP280;54626;45.436;10.942;2023-04-01T04:48:09;99489.56;;;7.17
67829;BMP280;54626;45.436;10.942;2023-04-01T04:50:36;99491.22;;;7.20
67829;BMP280;54626;45.436;10.942;2023-04-01T04:53:02;99500.19;;;7.20
67829;BMP280;54626;45.436;10.942;2023-04-01T04:55:29;99498.81;;;7.27
67829;BMP280;54626;45.436;10.942;2023-04-01T04:57:56;99502.63;;;7.24
67829;BMP280;54626;45.436;10.942;2023-04-01T05:00:22;99509.81;;;7.27
67829;BMP280;54626;45.436;10.942;2023-04-01T05:02:49;99513.81;;;7.26
67829;BMP280;54626;45.436;10.942;2023-04-01T05:05:16;99513.06;;;7.25
67829;BMP280;54626;45.436;10.942;2023-04-01T05:07:43;99516.56;;;7.26
67829;BMP280;54626;45.436;10.942;2023-04-01T05:10:10;99521.66;;;7.22
67829;BMP280;54626;45.436;10.942;2023-04-01T05:12:36;99515.56;;;7.16
67829;BMP280;54626;45.436;10.942;2023-04-01T05:15:05;99505.72;;;7.07
67829;BMP280;54626;45.436;10.942;2023-04-01T05:17:35;99493.09;;;7.04
67829;BMP280;54626;45.436;10.942;2023-04-01T05:20:02;99498.25;;;7.08
67829;BMP280;54626;45.436;10.942;2023-04-01T05:22:29;99507.22;;;7.08
67829;BMP280;54626;45.436;10.942;2023-04-01T05:24:55;99503.34;;;7.04
67829;BMP280;54626;45.436;10.942;2023-04-01T05:27:22;99504.38;;;7.14
67829;BMP280;54626;45.436;10.942;2023-04-01T05:29:48;99507.25;;;7.29
67829;BMP280;54626;45.436;10.942;2023-04-01T05:32:15;99499.34;;;7.45
67829;BMP280;54626;45.436;10.942;2023-04-01T05:34:42;99506.56;;;7.56
67829;BMP280;54626;45.436;10.942;2023-04-01T05:37:11;99512.84;;;7.64
67829;BMP280;54626;45.436;10.942;2023-04-01T05:39:38;99512.81;;;7.77
67829;BMP280;54626;45.436;10.942;2023-04-01T05:42:06;99518.03;;;7.88
67829;BMP280;54626;45.436;10.942;2023-04-01T05:44:33;99509.63;;;7.93
67829;BMP280;54626;45.436;10.942;2023-04-01T05:47:00;99514.59;;;7.95
67829;BMP280;54626;45.436;10.942;2023-04-01T05:49:30;99508.22;;;8.07
67829;BMP280;54626;45.436;10.942;2023-04-01T05:51:57;99522.09;;;8.22
67829;BMP280;54626;45.436;10.942;2023-04-01T05:54:23;99516.84;;;8.31
67829;BMP280;54626;45.436;10.942;2023-04-01T05:56:50;99522.03;;;8.50
67829;BMP280;54626;45.436;10.942;2023-04-01T05:59:16;99533.25;;;8.52
67829;BMP280;54626;45.436;10.942;2023-04-01T06:01:43;99527.03;;;8.59
67829;BMP280;54626;45.436;10.942;2023-04-01T06:04:16;99519.19;;;8.70
67829;BMP280;54626;45.436;10.942;2023-04-01T06:06:44;99518.13;;;8.73
67829;BMP280;54626;45.436;10.942;2023-04-01T06:12:07;99538.31;;;8.76
67829;BMP280;54626;45.436;10.942;2023-04-01T06:14:56;99524.19;;;8.87
67829;BMP280;54626;45.436;10.942;2023-04-01T06:25:40;99520.25;;;9.70
67829;BMP280;54626;45.436;10.942;2023-04-01T06:33:40;99534.97;;;9.80
67829;BMP280;54626;45.436;10.942;2023-04-01T06:37:02;99551.34;;;9.78
67829;BMP280;54626;45.436;10.942;2023-04-01T06:53:31;99556.75;;;10.45
67829;BMP280;54626;45.436;10.942;2023-04-01T06:56:02;99549.56;;;10.81
67829;BMP280;54626;45.436;10.942;2023-04-01T06:58:46;99558.56;;;10.89
67829;BMP280;54626;45.436;10.942;2023-04-01T07:01:27;99554.56;;;11.14
67829;BMP280;54626;45.436;10.942;2023-04-01T07:04:33;99563.41;;;11.13
67829;BMP280;54626;45.436;10.942;2023-04-01T07:07:06;99557.88;;;11.13
67829;BMP280;54626;45.436;10.942;2023-04-01T07:09:43;99567.16;;;11.08
67829;BMP280;54626;45.436;10.942;2023-04-01T07:12:29;99575.22;;;11.13
67829;BMP280;54626;45.436;10.942;2023-04-01T07:15:03;99571.06;;;11.29
67829;BMP280;54626;45.436;10.942;2023-04-01T07:17:33;99572.28;;;11.43
67829;BMP280;54626;45.436;10.942;2023-04-01T07:20:12;99565.50;;;11.53
67829;BMP280;54626;45.436;10.942;2023-04-01T07:22:45;99577.69;;;11.58
67829;BMP280;54626;45.436;10.942;2023-04-01T07:25:16;99572.97;;;11.68
67829;BMP280;54626;45.436;10.942;2023-04-01T07:27:46;99580.22;;;11.88
67829;BMP280;54626;45.436;10.942;2023-04-01T07:30:21;99577.78;;;12.09
67829;BMP280;54626;45.436;10.942;2023-04-01T07:35:47;99571.41;;;12.49
67829;BMP280;54626;45.436;10.942;2023-04-01T07:38:34;99575.97;;;12.54
67829;BMP280;54626;45.436;10.942;2023-04-01T07:41:13;99583.22;;;12.50
67829;BMP280;54626;45.436;10.942;2023-04-01T07:54:56;99593.97;;;13.06
67829;BMP280;54626;45.436;10.942;2023-04-01T08:03:29;99585.41;;;13.57
67829;BMP280;54626;45.436;10.942;2023-04-01T08:06:23;99585.41;;;13.57
67829;BMP280;54626;45.436;10.942;2023-04-01T08:08:59;99583.13;;;13.72
67829;BMP280;54626;45.436;10.942;2023-04-01T08:11:59;99574.47;;;13.77
67829;BMP280;54626;45.436;10.942;2023-04-01T08:14:42;99573.63;;;13.75
67829;BMP280;54626;45.436;10.942;2023-04-01T08:17:20;99581.38;;;13.95
67829;BMP280;54626;45.436;10.942;2023-04-01T08:22:45;99587.88;;;14.17
67829;BMP280;54626;45.436;10.942;2023-04-01T08:25:26;99588.13;;;14.30
67829;BMP280;54626;45.436;10.942;2023-04-01T08:28:01;99583.16;;;14.38
67829;BMP280;54626;45.436;10.942;2023-04-01T08:30:42;99584.47;;;14.56
67829;BMP280;54626;45.436;10.942;2023-04-01T08:38:38;99572.91;;;14.50
67829;BMP280;54626;45.436;10.942;2023-04-01T08:41:23;99575.56;;;14.57
67829;BMP280;54626;45.436;10.942;2023-04-01T08:44:11;99579.16;;;14.79
67829;BMP280;54626;45.436;10.942;2023-04-01T08:50:06;99579.66;;;15.05
67829;BMP280;54626;45.436;10.942;2023-04-01T09:01:36;99591.53;;;15.06
67829;BMP280;54626;45.436;10.942;2023-04-01T09:09:53;99600.41;;;15.74
67829;BMP280;54626;45.436;10.942;2023-04-01T09:21:17;99599.53;;;16.34
67829;BMP280;54626;45.436;10.942;2023-04-01T09:37:34;99585.38;;;17.20
67829;BMP280;54626;45.436;10.942;2023-04-01T09:40:25;99585.97;;;17.07
67829;BMP280;54626;45.436;10.942;2023-04-01T09:46:09;99593.13;;;17.56
67829;BMP280;54626;45.436;10.942;2023-04-01T09:48:46;99598.81;;;17.58
67829;BMP280;54626;45.436;10.942;2023-04-01T09:54:23;99599.34;;;17.90
67829;BMP280;54626;45.436;10.942;2023-04-01T09:57:07;99598.19;;;17.70
67829;BMP280;54626;45.436;10.942;2023-04-01T09:59:49;99600.59;;;17.76
67829;BMP280;54626;45.436;10.942;2023-04-01T10:02:48;99594.06;;;17.83
67829;BMP280;54626;45.436;10.942;2023-04-01T10:08:48;99580.66;;;17.93
67829;BMP280;54626;45.436;10.942;2023-04-01T10:17:18;99581.78;;;17.65
67829;BMP280;54626;45.436;10.942;2023-04-01T10:33:45;99569.72;;;18.35
67829;BMP280;54626;45.436;10.942;2023-04-01T10:39:19;99563.13;;;18.42
67829;BMP280;54626;45.436;10.942;2023-04-01T10:47:34;99563.28;;;18.71
67829;BMP280;54626;45.436;10.942;2023-04-01T10:50:23;99558.75;;;18.90
67829;BMP280;54626;45.436;10.942;2023-04-01T11:01:22;99543.91;;;19.28
67829;BMP280;54626;45.436;10.942;2023-04-01T11:21:44;99543.50;;;20.04
67829;BMP280;54626;45.436;10.942;2023-04-01T11:25:00;99543.97;;;20.14
67829;BMP280;54626;45.436;10.942;2023-04-01T11:28:16;99536.09;;;20.11
67829;BMP280;54626;45.436;10.942;2023-04-01T11:33:57;99549.22;;;20.66
67829;BMP280;54626;45.436;10.942;2023-04-01T11:36:32;99543.38;;;20.93
67829;BMP280;54626;45.436;10.942;2023-04-01T11:39:17;99538.22;;;20.72
67829;BMP280;54626;45.436;10.942;2023-04-01T11:42:02;99552.28;;;20.87
67829;BMP280;54626;45.436;10.942;2023-04-01T11:44:33;99539.91;;;21.10
67829;BMP280;54626;45.436;10.942;2023-04-01T11:47:22;99542.91;;;21.13
67829;BMP280;54626;45.436;10.942;2023-04-01T11:50:21;99539.06;;;21.22
67829;BMP280;54626;45.436;10.942;2023-04-01T11:56:14;99531.06;;;21.84
67829;BMP280;54626;45.436;10.942;2023-04-01T12:02:08;99528.97;;;21.67
67829;BMP280;54626;45.436;10.942;2023-04-01T12:07:53;99531.47;;;21.77
67829;BMP280;54626;45.436;10.942;2023-04-01T12:10:38;99525.00;;;22.09
67829;BMP280;54626;45.436;10.942;2023-04-01T12:15:50;99532.66;;;22.07
67829;BMP280;54626;45.436;10.942;2023-04-01T12:18:53;99518.13;;;22.31
67829;BMP280;54626;45.436;10.942;2023-04-01T12:21:36;99520.66;;;22.43
67829;BMP280;54626;45.436;10.942;2023-04-01T12:27:09;99530.38;;;21.84
67829;BMP280;54626;45.436;10.942;2023-04-01T12:37:39;99507.78;;;22.38
67829;BMP280;54626;45.436;10.942;2023-04-01T12:40:31;99507.28;;;22.63
67829;BMP280;54626;45.436;10.942;2023-04-01T12:58:06;99500.47;;;22.89
67829;BMP280;54626;45.436;10.942;2023-04-01T13:06:17;99501.28;;;23.55
67829;BMP280;54626;45.436;10.942;2023-04-01T13:09:08;99498.44;;;23.77
67829;BMP280;54626;45.436;10.942;2023-04-01T13:17:45;99483.78;;;23.82
67829;BMP280;54626;45.436;10.942;2023-04-01T13:22:50;99484.09;;;24.40
67829;BMP280;54626;45.436;10.942;2023-04-01T13:27:51;99484.16;;;23.26
67829;BMP280;54626;45.436;10.942;2023-04-01T13:30:30;99474.00;;;23.85
67829;BMP280;54626;45.436;10.942;2023-04-01T13:36:14;99467.59;;;24.08
67829;BMP280;54626;45.436;10.942;2023-04-01T13:56:18;99439.59;;;25.25
67829;BMP280;54626;45.436;10.942;2023-04-01T14:02:24;99429.38;;;24.83
67829;BMP280;54626;45.436;10.942;2023-04-01T14:16:12;99421.00;;;23.16
67829;BMP280;54626;45.436;10.942;2023-04-01T14:24:18;99416.91;;;24.39
67829;BMP280;54626;45.436;10.942;2023-04-01T14:40:58;99402.19;;;24.17
67829;BMP280;54626;45.436;10.942;2023-04-01T14:49:15;99390.72;;;23.63
67829;BMP280;54626;45.436;10.942;2023-04-01T14:51:45;99391.44;;;23.40
67829;BMP280;54626;45.436;10.942;2023-04-01T14:54:36;99393.72;;;23.01
67829;BMP280;54626;45.436;10.942;2023-04-01T14:57:14;99395.22;;;23.04
67829;BMP280;54626;45.436;10.942;2023-04-01T14:59:48;99393.56;;;22.97
67829;BMP280;54626;45.436;10.942;2023-04-01T15:02:46;99380.69;;;22.71
67829;BMP280;54626;45.436;10.942;2023-04-01T15:05:25;99384.19;;;22.69
67829;BMP280;54626;45.436;10.942;2023-04-01T15:08:03;99386.94;;;22.67
67829;BMP280;54626;45.436;10.942;2023-04-01T15:11:06;99382.47;;;22.60
67829;BMP280;54626;45.436;10.942;2023-04-01T15:17:05;99384.34;;;22.32
67829;BMP280;54626;45.436;10.942;2023-04-01T15:30:36;99387.69;;;23.80
67829;BMP280;54626;45.436;10.942;2023-04-01T15:36:39;99378.75;;;24.13
67829;BMP280;54626;45.436;10.942;2023-04-01T15:39:13;99386.78;;;24.49
67829;BMP280;54626;45.436;10.942;2023-04-01T15:48:57;99392.88;;;23.87
67829;BMP280;54626;45.436;10.942;2023-04-01T15:54:32;99398.66;;;23.68
67829;BMP280;54626;45.436;10.942;2023-04-01T15:57:37;99395.47;;;23.80
67829;BMP280;54626;45.436;10.942;2023-04-01T16:00:23;99394.53;;;23.73
67829;BMP280;54626;45.436;10.942;2023-04-01T16:03:18;99396.44;;;23.90
67829;BMP280;54626;45.436;10.942;2023-04-01T16:06:08;99391.09;;;23.75
67829;BMP280;54626;45.436;10.942;2023-04-01T16:11:29;99390.91;;;23.69
67829;BMP280;54626;45.436;10.942;2023-04-01T16:17:00;99375.81;;;23.60
67829;BMP280;54626;45.436;10.942;2023-04-01T16:22:39;99366.50;;;23.32
67829;BMP280;54626;45.436;10.942;2023-04-01T16:31:15;99370.13;;;22.50
67829;BMP280;54626;45.436;10.942;2023-04-01T16:42:48;99368.44;;;21.66
67829;BMP280;54626;45.436;10.942;2023-04-01T16:45:37;99368.41;;;21.46
67829;BMP280;54626;45.436;10.942;2023-04-01T16:51:17;99368.22;;;21.06
67829;BMP280;54626;45.436;10.942;2023-04-01T16:53:53;99377.63;;;20.95
67829;BMP280;54626;45.436;10.942;2023-04-01T16:56:38;99370.50;;;20.76
67829;BMP280;54626;45.436;10.942;2023-04-01T16:59:21;99367.56;;;20.57
67829;BMP280;54626;45.436;10.942;2023-04-01T17:01:57;99375.25;;;20.39
67829;BMP280;54626;45.436;10.942;2023-04-01T17:07:35;99375.44;;;19.97
67829;BMP280;54626;45.436;10.942;2023-04-01T17:10:46;99374.78;;;19.68
67829;BMP280;54626;45.436;10.942;2023-04-01T17:16:06;99374.97;;;19.28
67829;BMP280;54626;45.436;10.942;2023-04-01T17:18:59;99372.94;;;19.01
67829;BMP280;54626;45.436;10.942;2023-04-01T17:35:39;99384.44;;;17.73
67829;BMP280;54626;45.436;10.942;2023-04-01T17:38:48;99388.00;;;17.62
67829;BMP280;54626;45.436;10.942;2023-04-01T17:41:36;99387.13;;;17.47
67829;BMP280;54626;45.436;10.942;2023-04-01T18:03:36;99414.63;;;16.91
67829;BMP280;54626;45.436;10.942;2023-04-01T18:06:19;99418.91;;;16.69
67829;BMP280;54626;45.436;10.942;2023-04-01T18:17:11;99425.59;;;16.64
67829;BMP280;54626;45.436;10.942;2023-04-01T18:23:02;99434.91;;;16.46
67829;BMP280;54626;45.436;10.942;2023-04-01T18:25:41;99440.38;;;16.33
67829;BMP280;54626;45.436;10.942;2023-04-01T18:28:21;99440.44;;;16.12
67829;BMP280;54626;45.436;10.942;2023-04-01T18:30:55;99449.38;;;15.99
67829;BMP280;54626;45.436;10.942;2023-04-01T18:33:32;99449.66;;;16.03
67829;BMP280;54626;45.436;10.942;2023-04-01T18:38:38;99460.78;;;15.70
67829;BMP280;54626;45.436;10.942;2023-04-01T18:42:14;99462.28;;;15.51
67829;BMP280;54626;45.436;10.942;2023-04-01T18:44:23;99459.03;;;15.54
67829;BMP280;54626;45.436;10.942;2023-04-01T18:52:45;99464.78;;;15.47
67829;BMP280;54626;45.436;10.942;2023-04-01T18:57:41;99481.19;;;15.31
67829;BMP280;54626;45.436;10.942;2023-04-01T19:02:44;99477.69;;;15.21
67829;BMP280;54626;45.436;10.942;2023-04-01T19:05:19;99475.25;;;15.16
67829;BMP280;54626;45.436;10.942;2023-04-01T19:07:51;99480.28;;;15.08
67829;BMP280;54626;45.436;10.942;2023-04-01T19:13:24;99478.53;;;15.03
67829;BMP280;54626;45.436;10.942;2023-04-01T19:16:21;99481.50;;;14.96
67829;BMP280;54626;45.436;10.942;2023-04-01T19:25:12;99490.00;;;14.58
67829;BMP280;54626;45.436;10.942;2023-04-01T19:27:46;99490.59;;;14.47
67829;BMP280;54626;45.436;10.942;2023-04-01T19:30:30;99492.06;;;14.48
67829;BMP280;54626;45.436;10.942;2023-04-01T19:33:16;99500.56;;;14.50
67829;BMP280;54626;45.436;10.942;2023-04-01T19:38:49;99507.94;;;14.27
67829;BMP280;54626;45.436;10.942;2023-04-01T19:41:39;99500.47;;;14.20
67829;BMP280;54626;45.436;10.942;2023-04-01T19:44:21;99504.16;;;14.13
67829;BMP280;54626;45.436;10.942;2023-04-01T19:49:44;99511.47;;;13.89
67829;BMP280;54626;45.436;10.942;2023-04-01T19:52:31;99507.09;;;13.86
67829;BMP280;54626;45.436;10.942;2023-04-01T19:58:00;99521.41;;;14.02
67829;BMP280;54626;45.436;10.942;2023-04-01T20:00:37;99513.09;;;14.02
67829;BMP280;54626;45.436;10.942;2023-04-01T20:03:29;99519.34;;;14.21
67829;BMP280;54626;45.436;10.942;2023-04-01T20:06:28;99509.97;;;14.35
67829;BMP280;54626;45.436;10.942;2023-04-01T20:12:02;99521.41;;;14.39
67829;BMP280;54626;45.436;10.942;2023-04-01T20:14:49;99520.09;;;14.40
67829;BMP280;54626;45.436;10.942;2023-04-01T20:17:32;99515.69;;;14.37
67829;BMP280;54626;45.436;10.942;2023-04-01T20:28:02;99517.03;;;14.18
67829;BMP280;54626;45.436;10.942;2023-04-01T20:33:37;99524.59;;;14.17
67829;BMP280;54626;45.436;10.942;2023-04-01T20:41:27;99532.66;;;14.13
67829;BMP280;54626;45.436;10.942;2023-04-01T20:44:04;99530.31;;;14.19
67829;BMP280;54626;45.436;10.942;2023-04-01T20:46:39;99535.59;;;14.15
67829;BMP280;54626;45.436;10.942;2023-04-01T20:49:23;99532.81;;;14.06
67829;BMP280;54626;45.436;10.942;2023-04-01T20:52:00;99537.22;;;13.99
67829;BMP280;54626;45.436;10.942;2023-04-01T20:57:21;99539.72;;;13.86
67829;BMP280;54626;45.436;10.942;2023-04-01T21:05:31;99556.66;;;14.37
67829;BMP280;54626;45.436;10.942;2023-04-01T21:11:04;99552.38;;;14.64
67829;BMP280;54626;45.436;10.942;2023-04-01T21:16:47;99554.22;;;14.90
67829;BMP280;54626;45.436;10.942;2023-04-01T21:19:40;99561.00;;;15.17
67829;BMP280;54626;45.436;10.942;2023-04-01T21:25:28;99561.72;;;15.48
67829;BMP280;54626;45.436;10.942;2023-04-01T21:33:59;99571.56;;;15.70
67829;BMP280;54626;45.436;10.942;2023-04-01T21:39:23;99574.88;;;15.78
67829;BMP280;54626;45.436;10.942;2023-04-01T21:42:05;99578.94;;;15.86
67829;BMP280;54626;45.436;10.942;2023-04-01T22:12:54;99584.09;;;15.80
67829;BMP280;54626;45.436;10.942;2023-04-01T22:18:06;99590.03;;;15.75
67829;BMP280;54626;45.436;10.942;2023-04-01T22:20:59;99582.97;;;15.74
67829;BMP280;54626;45.436;10.942;2023-04-01T22:23:37;99579.59;;;15.75
67829;BMP280;54626;45.436;10.942;2023-04-01T22:26:27;99575.47;;;15.76
67829;BMP280;54626;45.436;10.942;2023-04-01T22:31:53;99573.03;;;15.71
67829;BMP280;54626;45.436;10.942;2023-04-01T22:34:37;99575.69;;;15.69
67829;BMP280;54626;45.436;10.942;2023-04-01T22:37:24;99581.00;;;15.65
67829;BMP280;54626;45.436;10.942;2023-04-01T22:42:46;99574.94;;;15.68
67829;BMP280;54626;45.436;10.942;2023-04-01T22:51:30;99573.94;;;15.64
67829;BMP280;54626;45.436;10.942;2023-04-01T22:54:05;99574.88;;;15.57
67829;BMP280;54626;45.436;10.942;2023-04-01T22:57:08;99572.22;;;15.59
67829;BMP280;54626;45.436;10.942;2023-04-01T22:59:43;99570.50;;;15.54
67829;BMP280;54626;45.436;10.942;2023-04-01T23:02:15;99567.03;;;15.44
67829;BMP280;54626;45.436;10.942;2023-04-01T23:04:43;99572.06;;;15.36
67829;BMP280;54626;45.436;10.942;2023-04-01T23:07:28;99573.97;;;15.24
67829;BMP280;54626;45.436;10.942;2023-04-01T23:10:01;99573.28;;;15.14
67829;BMP280;54626;45.436;10.942;2023-04-01T23:12:29;99583.59;;;15.12
67829;BMP280;54626;45.436;10.942;2023-04-01T23:15:02;99582.78;;;14.91
67829;BMP280;54626;45.436;10.942;2023-04-01T23:20:28;99580.38;;;14.38
67829;BMP280;54626;45.436;10.942;2023-04-01T23:33:58;99587.84;;;14.35
67829;BMP280;54626;45.436;10.942;2023-04-01T23:36:27;99589.16;;;14.34
67829;BMP280;54626;45.436;10.942;2023-04-01T23:38:54;99590.06;;;14.28
67829;BMP280;54626;45.436;10.942;2023-04-01T23:41:29;99588.72;;;14.19
67829;BMP280;54626;45.436;10.942;2023-04-01T23:44:03;99585.94;;;14.19
67829;BMP280;54626;45.436;10.942;2023-04-01T23:46:32;99588.44;;;14.15